createdAt,value
2022-09-01T00:00:30.763Z,82.17
2022-09-01T00:02:59.218Z,82.83
2022-09-01T00:05:27.387Z,83.09
2022-09-01T00:07:55.472Z,83.15
2022-09-01T00:10:23.845Z,83.36
2022-09-01T00:12:51.924Z,82.62
2022-09-01T00:15:19.975Z,83.17
2022-09-01T00:17:49.685Z,83.00
2022-09-01T00:20:20.510Z,84.34
2022-09-01T00:22:49.239Z,84.28
2022-09-01T00:25:20.229Z,84.41
2022-09-01T00:27:49.397Z,84.03
2022-09-01T00:30:17.726Z,83.88
2022-09-01T00:32:46.967Z,84.79
2022-09-01T00:35:18.610Z,84.10
2022-09-01T00:37:46.966Z,83.98
2022-09-01T00:40:17.842Z,84.88
2022-09-01T00:42:46.192Z,83.88
2022-09-01T00:45:14.565Z,84.27
2022-09-01T00:47:43.879Z,84.50
2022-09-01T00:50:14.743Z,84.23
2022-09-01T00:52:48.701Z,84.70
2022-09-01T00:55:19.295Z,84.96
2022-09-01T00:57:48.001Z,84.46
2022-09-01T01:00:20.248Z,85.19
2022-09-01T01:02:50.234Z,85.93
2022-09-01T01:05:18.655Z,85.48
2022-09-01T01:07:48.158Z,86.07
2022-09-01T01:10:20.778Z,85.57
2022-09-01T01:12:51.884Z,86.24
2022-09-01T01:15:20.624Z,85.27
2022-09-01T01:17:48.627Z,85.94
2022-09-01T01:20:48.032Z,85.80
2022-09-01T01:23:22.852Z,85.35
2022-09-01T01:25:54.995Z,85.61
2022-09-01T01:28:28.257Z,86.43
2022-09-01T01:30:59.380Z,86.74
2022-09-01T01:33:32.649Z,85.88
2022-09-01T01:36:02.523Z,85.71
2022-09-01T01:38:31.250Z,85.25
2022-09-01T01:41:01.688Z,85.07
2022-09-01T01:43:30.248Z,85.43
2022-09-01T01:46:02.750Z,86.38
2022-09-01T01:48:39.497Z,86.08
2022-09-01T01:51:09.134Z,85.66
2022-09-01T01:53:37.950Z,86.53
2022-09-01T01:56:09.077Z,86.94
2022-09-01T01:58:37.815Z,85.99
2022-09-01T02:01:11.899Z,86.61
2022-09-01T02:03:40.506Z,85.99
2022-09-01T02:06:12.099Z,86.34
2022-09-01T02:08:42.323Z,86.95
2022-09-01T02:11:13.317Z,86.68
2022-09-01T02:13:41.446Z,87.01
2022-09-01T02:16:13.240Z,87.15
2022-09-01T02:18:48.189Z,87.70
2022-09-01T02:21:20.312Z,87.21
2022-09-01T02:23:50.779Z,87.89
2022-09-01T02:26:25.088Z,87.59
2022-09-01T02:28:55.982Z,86.78
2022-09-01T02:31:32.048Z,87.89
2022-09-01T02:34:01.973Z,87.97
2022-09-01T02:36:32.883Z,88.81
2022-09-01T02:39:02.118Z,88.65
2022-09-01T02:41:34.659Z,88.45
2022-09-01T02:44:04.127Z,89.23
2022-09-01T02:46:32.940Z,88.71
2022-09-01T02:49:01.622Z,89.02
2022-09-01T02:51:29.791Z,89.06
2022-09-01T02:53:58.561Z,89.43
2022-09-01T02:56:27.550Z,89.45
2022-09-01T02:58:57.473Z,89.46
2022-09-01T03:01:29.426Z,89.79
2022-09-01T03:04:00.385Z,89.58
2022-09-01T03:06:29.315Z,89.72
2022-09-01T03:09:00.331Z,89.73
2022-09-01T03:11:30.536Z,89.87
2022-09-01T03:14:01.062Z,90.13
2022-09-01T03:16:31.524Z,89.97
2022-09-01T03:18:59.831Z,89.81
2022-09-01T03:21:27.955Z,89.62
2022-09-01T03:23:58.287Z,89.91
2022-09-01T03:26:27.046Z,90.73
2022-09-01T03:28:56.413Z,90.53
2022-09-01T03:31:27.722Z,90.55
2022-09-01T03:34:03.393Z,89.81
2022-09-01T03:36:36.600Z,89.02
2022-09-01T03:39:05.696Z,89.22
2022-09-01T03:41:35.056Z,89.87
2022-09-01T03:44:04.448Z,89.24
2022-09-01T03:46:37.185Z,89.69
2022-09-01T03:49:08.182Z,90.76
2022-09-01T03:51:39.401Z,90.76
2022-09-01T03:54:10.198Z,90.83
2022-09-01T03:56:41.573Z,89.89
2022-09-01T03:59:17.449Z,89.10
2022-09-01T04:01:49.788Z,90.33
2022-09-01T04:04:18.484Z,90.83
2022-09-01T04:06:47.478Z,90.58
2022-09-01T04:09:16.528Z,90.55
2022-09-01T04:11:47.212Z,91.19
2022-09-01T04:14:17.471Z,90.75
2022-09-01T04:17:07.174Z,91.22
2022-09-01T04:19:39.512Z,90.30
2022-09-01T04:22:13.602Z,90.88
2022-09-01T04:24:46.093Z,91.29
2022-09-01T04:27:18.243Z,91.40
2022-09-01T04:29:48.546Z,90.85
2022-09-01T04:32:21.706Z,90.75
2022-09-01T04:34:53.493Z,91.19
2022-09-01T04:37:23.701Z,91.43
2022-09-01T04:39:57.680Z,91.47
2022-09-01T04:42:29.767Z,91.06
2022-09-01T04:45:03.157Z,90.03
2022-09-01T04:47:46.741Z,90.35
2022-09-01T04:50:18.539Z,91.20
2022-09-01T04:53:14.292Z,91.12
2022-09-01T04:55:49.822Z,91.19
2022-09-01T04:58:22.266Z,90.30
2022-09-01T05:00:53.121Z,89.97
2022-09-01T05:03:24.936Z,89.80
2022-09-01T05:06:00.212Z,89.71
2022-09-01T05:08:29.186Z,91.12
2022-09-01T05:11:07.995Z,90.66
2022-09-01T05:13:43.566Z,90.63
2022-09-01T05:16:15.818Z,90.92
2022-09-01T05:18:51.092Z,90.28
2022-09-01T05:21:22.403Z,89.33
2022-09-01T05:23:53.035Z,88.79
2022-09-01T05:26:26.197Z,89.56
2022-09-01T05:28:59.302Z,89.32
2022-09-01T05:31:34.969Z,89.01
2022-09-01T05:34:05.357Z,89.01
2022-09-01T05:36:33.917Z,89.05
2022-09-01T05:39:04.906Z,89.19
2022-09-01T05:41:35.942Z,89.64
2022-09-01T05:44:08.122Z,89.12
2022-09-01T05:46:40.049Z,88.64
2022-09-01T05:49:13.564Z,88.23
2022-09-01T05:51:45.928Z,88.31
2022-09-01T05:54:25.571Z,88.27
2022-09-01T05:57:12.721Z,88.74
2022-09-01T05:59:48.949Z,89.05
2022-09-01T06:02:22.382Z,88.12
2022-09-01T06:04:57.229Z,87.94
2022-09-01T06:07:30.713Z,87.65
2022-09-01T06:10:02.658Z,87.03
2022-09-01T06:12:31.302Z,87.26
2022-09-01T06:15:00.201Z,87.85
2022-09-01T06:17:30.843Z,86.09
2022-09-01T06:20:10.721Z,86.05
2022-09-01T06:22:41.746Z,85.80
2022-09-01T06:25:11.626Z,86.31
2022-09-01T06:27:44.921Z,86.63
2022-09-01T06:30:23.027Z,84.97
2022-09-01T06:33:09.381Z,84.15
2022-09-01T06:35:44.770Z,84.31
2022-09-01T06:38:19.423Z,84.32
2022-09-01T06:40:51.077Z,84.09
2022-09-01T06:43:24.017Z,84.58
2022-09-01T06:45:54.608Z,84.70
2022-09-01T06:48:24.780Z,83.54
2022-09-01T06:51:21.034Z,83.67
2022-09-01T06:53:56.762Z,84.44
2022-09-01T06:56:32.159Z,83.86
2022-09-01T06:59:04.270Z,82.52
2022-09-01T07:01:32.833Z,83.84
2022-09-01T07:04:02.646Z,82.37
2022-09-01T07:07:00.480Z,81.79
2022-09-01T07:12:26.757Z,82.24
2022-09-01T07:17:50.191Z,81.55
2022-09-01T07:20:24.506Z,81.10
2022-09-01T07:23:04.832Z,81.28
2022-09-01T07:28:41.818Z,80.04
2022-09-01T07:39:55.295Z,80.48
2022-09-01T07:42:31.940Z,82.78
2022-09-01T07:45:58.915Z,79.94
2022-09-01T07:49:01.832Z,79.43
2022-09-01T07:51:37.711Z,79.09
2022-09-01T07:54:07.673Z,79.57
2022-09-01T07:56:40.109Z,79.42
2022-09-01T07:59:15.259Z,79.59
2022-09-01T08:02:18.387Z,79.43
2022-09-01T08:04:48.285Z,78.88
2022-09-01T08:07:17.122Z,79.37
2022-09-01T08:09:45.600Z,79.08
2022-09-01T08:12:17.666Z,78.57
2022-09-01T08:17:51.814Z,77.43
2022-09-01T08:20:22.725Z,77.52
2022-09-01T08:22:51.214Z,76.05
2022-09-01T08:25:25.097Z,75.56
2022-09-01T08:28:00.347Z,74.76
2022-09-01T08:30:30.086Z,75.74
2022-09-01T08:32:58.580Z,75.33
2022-09-01T08:35:29.512Z,75.81
2022-09-01T08:38:00.274Z,76.04
2022-09-01T08:40:29.172Z,75.38
2022-09-01T08:43:13.203Z,75.59
2022-09-01T08:45:49.082Z,75.45
2022-09-01T08:49:09.799Z,75.28
2022-09-01T08:51:20.067Z,74.69
2022-09-01T08:54:05.845Z,74.39
2022-09-01T08:56:37.535Z,73.72
2022-09-01T08:59:10.806Z,73.77
2022-09-01T09:02:16.617Z,72.76
2022-09-01T09:04:58.652Z,72.53
2022-09-01T09:07:39.113Z,71.26
2022-09-01T09:10:12.102Z,71.53
2022-09-01T09:12:54.343Z,71.37
2022-09-01T09:15:32.955Z,72.57
2022-09-01T09:18:20.203Z,70.27
2022-09-01T09:21:07.878Z,68.84
2022-09-01T09:23:40.879Z,68.81
2022-09-01T09:26:08.911Z,69.10
2022-09-01T09:28:40.192Z,68.37
2022-09-01T09:31:31.144Z,69.07
2022-09-01T09:34:00.005Z,67.18
2022-09-01T09:36:34.819Z,65.67
2022-09-01T09:39:13.331Z,65.42
2022-09-01T09:41:42.471Z,64.62
2022-09-01T09:44:23.149Z,64.52
2022-09-01T09:46:53.116Z,65.11
2022-09-01T09:49:36.038Z,64.23
2022-09-01T09:52:19.119Z,65.11
2022-09-01T09:55:03.847Z,61.93
2022-09-01T09:57:35.836Z,61.38
2022-09-01T10:00:09.677Z,61.83
2022-09-01T10:02:46.010Z,61.48
2022-09-01T10:05:29.868Z,62.02
2022-09-01T10:07:59.182Z,62.79
2022-09-01T10:10:31.010Z,60.82
2022-09-01T10:13:02.229Z,60.24
2022-09-01T10:15:33.508Z,60.45
2022-09-01T10:18:20.179Z,60.13
2022-09-01T10:20:57.344Z,58.91
2022-09-01T10:23:30.985Z,58.60
2022-09-01T10:26:05.909Z,58.08
2022-09-01T10:28:37.988Z,58.89
2022-09-01T10:31:09.103Z,58.42
2022-09-01T10:33:38.853Z,59.97
2022-09-01T10:36:10.157Z,60.13
2022-09-01T10:38:39.257Z,57.53
2022-09-01T10:41:14.713Z,57.56
2022-09-01T10:43:45.217Z,57.09
2022-09-01T10:46:50.863Z,56.86
2022-09-01T10:50:06.996Z,54.48
2022-09-01T10:53:01.445Z,55.01
2022-09-01T10:55:36.623Z,54.99
2022-09-01T11:01:11.491Z,53.28
2022-09-01T11:03:53.435Z,52.63
2022-09-01T11:09:46.036Z,52.14
2022-09-01T11:12:37.888Z,51.23
2022-09-01T11:15:27.769Z,51.10
2022-09-01T11:17:56.817Z,51.79
2022-09-01T11:20:27.973Z,51.22
2022-09-01T11:23:03.525Z,51.78
2022-09-01T11:25:43.825Z,51.07
2022-09-01T11:28:40.076Z,51.22
2022-09-01T11:31:34.216Z,51.84
2022-09-01T11:34:15.208Z,50.67
2022-09-01T11:37:00.460Z,50.77
2022-09-01T11:39:40.645Z,51.61
2022-09-01T11:42:14.551Z,51.68
2022-09-01T11:44:49.527Z,53.01
2022-09-01T11:47:21.025Z,52.38
2022-09-01T11:49:53.020Z,50.48
2022-09-01T11:52:23.584Z,51.89
2022-09-01T11:54:52.516Z,51.01
2022-09-01T11:57:28.232Z,50.10
2022-09-01T11:59:57.390Z,50.12
2022-09-01T12:02:30.437Z,49.39
2022-09-01T12:04:59.235Z,51.75
2022-09-01T12:07:38.966Z,50.76
2022-09-01T12:10:18.434Z,50.69
2022-09-01T12:12:48.731Z,50.66
2022-09-01T12:15:22.409Z,50.16
2022-09-01T12:17:51.296Z,50.04
2022-09-01T12:20:29.524Z,50.53
2022-09-01T12:22:59.921Z,49.80
2022-09-01T12:25:30.410Z,50.87
2022-09-01T12:28:01.289Z,49.60
2022-09-01T12:30:30.132Z,49.22
2022-09-01T12:35:47.600Z,49.64
2022-09-01T12:38:26.789Z,49.14
2022-09-01T12:40:56.752Z,49.09
2022-09-01T12:43:40.770Z,47.74
2022-09-01T12:46:10.896Z,48.73
2022-09-01T12:48:41.710Z,50.52
2022-09-01T12:51:23.832Z,46.47
2022-09-01T12:53:58.451Z,45.52
2022-09-01T12:56:32.069Z,43.72
2022-09-01T12:59:14.350Z,46.99
2022-09-01T13:01:45.038Z,46.13
2022-09-01T13:04:16.634Z,44.38
2022-09-01T13:06:44.669Z,44.10
2022-09-01T13:09:12.791Z,45.53
2022-09-01T13:14:31.678Z,47.60
2022-09-01T13:16:59.568Z,44.28
2022-09-01T13:19:30.568Z,44.45
2022-09-01T13:21:59.071Z,44.83
2022-09-01T13:24:30.429Z,43.47
2022-09-01T13:29:49.451Z,43.23
2022-09-01T13:32:20.487Z,42.79
2022-09-01T13:34:50.672Z,40.60
2022-09-01T13:37:19.983Z,41.97
2022-09-01T13:39:48.629Z,42.21
2022-09-01T13:42:17.314Z,40.40
2022-09-01T13:44:48.282Z,42.40
2022-09-01T13:47:35.408Z,41.47
2022-09-01T13:50:11.482Z,40.78
2022-09-01T13:52:41.784Z,40.58
2022-09-01T13:55:12.913Z,38.92
2022-09-01T13:57:41.398Z,39.48
2022-09-01T14:00:12.296Z,40.05
2022-09-01T14:02:50.022Z,39.19
2022-09-01T14:05:20.078Z,37.25
2022-09-01T14:07:48.877Z,37.91
2022-09-01T14:10:17.927Z,37.95
2022-09-01T14:12:46.949Z,38.28
2022-09-01T14:15:18.559Z,38.28
2022-09-01T14:17:52.064Z,38.38
2022-09-01T14:20:22.356Z,37.58
2022-09-01T14:22:51.429Z,38.97
2022-09-01T14:25:20.227Z,39.19
2022-09-01T14:27:49.693Z,39.76
2022-09-01T14:30:20.817Z,40.13
2022-09-01T14:32:50.680Z,38.04
2022-09-01T14:35:20.945Z,38.83
2022-09-01T14:37:49.078Z,38.54
2022-09-01T14:40:18.386Z,38.75
2022-09-01T14:42:49.291Z,37.41
2022-09-01T14:45:20.531Z,36.43
2022-09-01T14:47:53.837Z,36.47
2022-09-01T14:50:25.778Z,37.18
2022-09-01T14:52:57.406Z,38.56
2022-09-01T14:55:28.324Z,38.46
2022-09-01T14:57:57.165Z,38.56
2022-09-01T15:00:26.236Z,39.16
2022-09-01T15:02:57.117Z,37.98
2022-09-01T15:05:26.151Z,37.28
2022-09-01T15:07:55.286Z,39.23
2022-09-01T15:10:25.704Z,39.54
2022-09-01T15:12:56.116Z,37.47
2022-09-01T15:15:26.172Z,37.17
2022-09-01T15:17:54.852Z,43.25
2022-09-01T15:20:43.608Z,44.98
2022-09-01T15:23:12.545Z,46.74
2022-09-01T15:25:40.608Z,46.98
2022-09-01T15:28:09.348Z,44.15
2022-09-01T15:30:38.795Z,44.82
2022-09-01T15:33:14.701Z,41.97
2022-09-01T15:35:45.405Z,42.96
2022-09-01T15:38:17.590Z,41.87
2022-09-01T15:40:58.166Z,46.14
2022-09-01T15:43:28.030Z,46.89
2022-09-01T15:45:58.377Z,41.91
2022-09-01T15:48:29.770Z,40.00
2022-09-01T15:51:23.046Z,43.42
2022-09-01T15:53:52.174Z,43.49
2022-09-01T15:56:20.318Z,44.09
2022-09-01T15:59:00.911Z,41.89
2022-09-01T16:01:32.109Z,44.85
2022-09-01T16:04:01.229Z,47.29
2022-09-01T16:06:31.251Z,47.97
2022-09-01T16:08:59.808Z,43.26
2022-09-01T16:11:28.197Z,41.70
2022-09-01T16:13:57.028Z,41.04
2022-09-01T16:16:51.950Z,41.11
2022-09-01T16:19:32.002Z,41.26
2022-09-01T16:22:11.041Z,45.12
2022-09-01T16:24:41.894Z,45.70
2022-09-01T16:27:12.060Z,44.30
2022-09-01T16:29:45.539Z,44.62
2022-09-01T16:32:13.927Z,42.97
2022-09-01T16:34:46.944Z,42.20
2022-09-01T16:37:28.920Z,42.21
2022-09-01T16:40:09.336Z,42.42
2022-09-01T16:42:46.873Z,42.46
2022-09-01T16:45:26.279Z,43.67
2022-09-01T16:48:05.190Z,43.00
2022-09-01T16:50:41.248Z,43.99
2022-09-01T16:53:20.364Z,46.25
2022-09-01T16:56:00.064Z,47.44
2022-09-01T16:58:41.170Z,48.11
2022-09-01T17:01:24.280Z,49.08
2022-09-01T17:04:00.118Z,48.89
2022-09-01T17:06:32.219Z,49.30
2022-09-01T17:09:12.380Z,50.05
2022-09-01T17:11:49.451Z,50.04
2022-09-01T17:14:25.642Z,50.05
2022-09-01T17:16:55.942Z,50.49
2022-09-01T17:19:25.121Z,51.03
2022-09-01T17:22:02.053Z,51.23
2022-09-01T17:24:38.526Z,52.28
2022-09-01T17:27:11.013Z,51.59
2022-09-01T17:29:44.847Z,52.00
2022-09-01T17:32:30.795Z,52.41
2022-09-01T17:35:11.318Z,52.20
2022-09-01T17:37:47.882Z,52.64
2022-09-01T17:40:23.278Z,53.14
2022-09-01T17:42:58.165Z,53.41
2022-09-01T17:45:30.571Z,53.35
2022-09-01T17:48:09.203Z,54.78
2022-09-01T17:50:51.152Z,54.04
2022-09-01T17:53:29.561Z,54.82
2022-09-01T17:56:04.266Z,54.47
2022-09-01T17:58:46.564Z,54.38
2022-09-01T18:01:20.953Z,54.21
2022-09-01T18:04:15.427Z,54.53
2022-09-01T18:06:52.705Z,54.31
2022-09-01T18:09:25.645Z,54.51
2022-09-01T18:12:00.828Z,54.81
2022-09-01T18:14:36.095Z,55.02
2022-09-01T18:17:09.770Z,55.50
2022-09-01T18:19:41.062Z,55.72
2022-09-01T18:22:14.329Z,56.01
2022-09-01T18:24:52.244Z,56.44
2022-09-01T18:27:24.630Z,56.87
2022-09-01T18:29:57.925Z,56.96
2022-09-01T18:32:35.859Z,57.60
2022-09-01T18:35:26.272Z,58.37
2022-09-01T18:38:10.193Z,59.48
2022-09-01T18:40:49.923Z,59.35
2022-09-01T18:43:21.891Z,58.86
2022-09-01T18:45:57.068Z,59.14
2022-09-01T18:48:31.928Z,59.19
2022-09-01T18:51:08.166Z,59.10
2022-09-01T18:53:46.553Z,59.78
2022-09-01T18:56:21.742Z,60.42
2022-09-01T18:59:04.406Z,61.13
2022-09-01T19:01:35.034Z,61.59
2022-09-01T19:04:15.014Z,61.84
2022-09-01T19:06:53.069Z,62.29
2022-09-01T19:09:32.354Z,63.10
2022-09-01T19:12:14.015Z,63.56
2022-09-01T19:14:53.771Z,63.92
2022-09-01T19:17:37.603Z,64.41
2022-09-01T19:20:10.711Z,64.66
2022-09-01T19:22:44.594Z,66.36
2022-09-01T19:25:32.543Z,66.81
2022-09-01T19:28:05.740Z,67.42
2022-09-01T19:30:41.546Z,67.07
2022-09-01T19:33:13.746Z,67.36
2022-09-01T19:35:46.413Z,67.52
2022-09-01T19:38:20.144Z,68.24
2022-09-01T19:40:51.936Z,68.00
2022-09-01T19:43:21.396Z,68.77
2022-09-01T19:46:01.546Z,68.87
2022-09-01T19:48:36.906Z,69.23
2022-09-01T19:51:13.695Z,69.35
2022-09-01T19:53:50.145Z,70.33
2022-09-01T19:56:23.634Z,70.39
2022-09-01T19:59:00.338Z,70.88
2022-09-01T20:01:41.677Z,71.29
2022-09-01T20:04:21.897Z,70.33
2022-09-01T20:06:55.479Z,70.53
2022-09-01T20:09:31.147Z,70.38
2022-09-01T20:12:10.946Z,70.44
2022-09-01T20:14:56.368Z,70.89
2022-09-01T20:17:30.329Z,72.09
2022-09-01T20:20:05.107Z,71.76
2022-09-01T20:22:40.405Z,72.30
2022-09-01T20:25:11.551Z,71.65
2022-09-01T20:27:51.803Z,71.85
2022-09-01T20:30:22.766Z,71.76
2022-09-01T20:33:01.075Z,71.69
2022-09-01T20:35:39.073Z,71.32
2022-09-01T20:38:29.465Z,71.67
2022-09-01T20:41:00.295Z,71.12
2022-09-01T20:43:34.143Z,71.86
2022-09-01T20:46:02.306Z,73.25
2022-09-01T20:48:38.262Z,72.54
2022-09-01T20:51:12.030Z,72.87
2022-09-01T20:54:00.427Z,73.61
2022-09-01T20:56:36.880Z,72.88
2022-09-01T20:59:14.036Z,73.75
2022-09-01T21:01:50.112Z,74.25
2022-09-01T21:04:35.948Z,75.79
2022-09-01T21:07:10.386Z,75.25
2022-09-01T21:09:47.703Z,74.69
2022-09-01T21:12:26.919Z,75.24
2022-09-01T21:15:04.725Z,75.35
2022-09-01T21:17:42.146Z,74.95
2022-09-01T21:20:19.531Z,75.28
2022-09-01T21:22:47.610Z,75.38
2022-09-01T21:25:15.659Z,75.19
2022-09-01T21:27:52.126Z,75.47
2022-09-01T21:30:21.310Z,75.54
2022-09-01T21:32:49.762Z,74.81
2022-09-01T21:35:20.984Z,75.79
2022-09-01T21:37:49.154Z,76.04
2022-09-01T21:40:18.638Z,76.49
2022-09-01T21:42:49.644Z,76.50
2022-09-01T21:45:19.601Z,76.41
2022-09-01T21:47:48.425Z,75.24
2022-09-01T21:50:17.966Z,76.26
2022-09-01T21:52:47.443Z,77.00
2022-09-01T21:55:20.719Z,76.53
2022-09-01T21:57:51.052Z,75.63
2022-09-01T22:00:21.485Z,75.04
2022-09-01T22:02:49.877Z,75.44
2022-09-01T22:05:18.181Z,76.09
2022-09-01T22:07:48.621Z,75.71
2022-09-01T22:10:21.043Z,75.70
2022-09-01T22:12:50.855Z,75.33
2022-09-01T22:15:21.711Z,75.84
2022-09-01T22:17:50.554Z,75.58
2022-09-01T22:20:22.377Z,75.65
2022-09-01T22:22:52.083Z,75.36
2022-09-01T22:25:23.936Z,75.52
2022-09-01T22:27:52.408Z,76.46
2022-09-01T22:30:20.756Z,77.88
2022-09-01T22:32:48.817Z,77.52
2022-09-01T22:35:18.669Z,77.20
2022-09-01T22:37:47.065Z,76.98
2022-09-01T22:40:17.237Z,76.67
2022-09-01T22:42:46.223Z,78.55
2022-09-01T22:45:16.339Z,79.41
2022-09-01T22:47:44.546Z,78.95
2022-09-01T22:50:12.919Z,79.26
2022-09-01T22:52:41.017Z,79.44
2022-09-01T22:55:10.281Z,79.39
2022-09-01T22:57:39.792Z,79.75
2022-09-01T23:00:10.734Z,79.61
2022-09-01T23:02:38.969Z,80.00
2022-09-01T23:05:08.521Z,78.76
2022-09-01T23:07:39.652Z,79.14
2022-09-01T23:10:09.825Z,78.94
2022-09-01T23:12:39.464Z,79.22
2022-09-01T23:15:09.414Z,79.59
2022-09-01T23:17:37.953Z,80.00
2022-09-01T23:20:09.104Z,79.91
2022-09-01T23:22:37.162Z,80.31
2022-09-01T23:25:05.884Z,80.15
2022-09-01T23:27:34.136Z,80.99
2022-09-01T23:30:04.098Z,80.07
2022-09-01T23:32:35.475Z,79.65
2022-09-01T23:35:03.639Z,79.97
2022-09-01T23:37:31.752Z,79.55
2022-09-01T23:40:00.056Z,79.95
2022-09-01T23:42:28.213Z,80.27
2022-09-01T23:44:56.270Z,79.25
2022-09-01T23:47:25.711Z,79.21
2022-09-01T23:49:53.792Z,79.83
2022-09-01T23:52:21.886Z,79.54
2022-09-01T23:54:49.963Z,80.25
2022-09-01T23:57:19.100Z,79.64
2022-09-01T23:59:47.295Z,78.65
